Time;durP1;ratioP1;P1;durP2;ratioP2;P2;SDS_P1;SDS_P2;PMS_P1;PMS_P2;Temp;Humidity;BMP_temperature;BMP_pressure;BME280_temperature;BME280_humidity;BME280_pressure;Samples;Min_cycle;Max_cycle;Signal;HPM_P1;HPM_P2
2023/03/12 00:00:40;;;;;;;12.38;4.95;;;2.30;59.60;;;;;;5057212;28;20025;-87
2023/03/12 00:03:06;;;;;;;14.00;5.72;;;2.30;59.50;;;;;;5056736;28;20069;-88
2023/03/12 00:05:32;;;;;;;9.70;4.65;;;2.20;60.30;;;;;;5056922;28;20071;-89
2023/03/12 00:07:58;;;;;;;14.30;5.20;;;2.30;59.60;;;;;;5056468;28;20466;-84
2023/03/12 00:10:25;;;;;;;15.20;6.60;;;2.30;59.70;;;;;;5057606;28;20029;-83
2023/03/12 00:12:51;;;;;;;17.27;5.90;;;2.40;59.40;;;;;;5058463;28;20029;-88
2023/03/12 00:15:16;;;;;;;10.23;5.53;;;2.40;59.20;;;;;;5056935;28;20029;-85
2023/03/12 00:17:42;;;;;;;8.48;4.15;;;2.40;59.20;;;;;;5056145;28;20632;-82
2023/03/12 00:20:08;;;;;;;10.30;4.47;;;2.40;58.90;;;;;;5056183;28;20029;-83
2023/03/12 00:22:34;;;;;;;7.35;4.30;;;2.40;59.10;;;;;;5070522;28;20067;-77
2023/03/12 00:25:00;;;;;;;9.90;4.45;;;2.40;59.30;;;;;;5079570;28;20012;-80
2023/03/12 00:27:26;;;;;;;6.65;4.13;;;2.40;60.10;;;;;;5076222;28;20044;-76
2023/03/12 00:29:51;;;;;;;7.93;3.90;;;2.30;59.10;;;;;;5043914;28;20454;-72
2023/03/12 00:32:17;;;;;;;11.35;4.90;;;2.30;59.30;;;;;;5055729;28;20068;-74
2023/03/12 00:34:43;;;;;;;14.13;4.60;;;2.20;59.70;;;;;;5055608;28;20411;-77
2023/03/12 00:37:09;;;;;;;9.68;4.57;;;2.20;59.80;;;;;;5055148;28;20024;-75
2023/03/12 00:39:34;;;;;;;14.65;4.82;;;2.20;59.80;;;;;;5055134;28;20529;-76
2023/03/12 00:42:00;;;;;;;9.60;4.53;;;2.20;60.00;;;;;;5036955;28;20037;-76
2023/03/12 00:44:26;;;;;;;10.57;5.03;;;2.20;60.20;;;;;;5037137;28;20478;-74
2023/03/12 00:46:51;;;;;;;9.45;4.57;;;2.20;60.20;;;;;;5055392;28;20025;-86
2023/03/12 00:49:17;;;;;;;12.07;4.88;;;2.20;60.20;;;;;;5056054;28;20478;-87
2023/03/12 00:51:43;;;;;;;8.88;4.50;;;2.30;60.30;;;;;;5056259;28;20029;-86
2023/03/12 00:54:08;;;;;;;9.90;4.47;;;2.30;60.20;;;;;;5057460;28;20028;-87
2023/03/12 00:56:34;;;;;;;12.63;4.72;;;2.30;60.10;;;;;;5038267;28;20033;-86
2023/03/12 00:58:59;;;;;;;8.75;4.07;;;2.30;60.00;;;;;;5057577;28;20036;-85
2023/03/12 01:01:26;;;;;;;10.32;5.05;;;2.30;60.20;;;;;;5057165;28;20051;-75
2023/03/12 01:03:53;;;;;;;11.10;4.57;;;2.30;60.20;;;;;;5054476;28;20116;-77
2023/03/12 01:06:19;;;;;;;10.27;4.00;;;2.30;60.30;;;;;;5054049;28;20506;-73
2023/03/12 01:08:44;;;;;;;11.90;4.90;;;2.30;60.40;;;;;;5053999;28;20120;-73
2023/03/12 01:11:16;;;;;;;10.07;4.57;;;2.30;60.30;;;;;;5054320;28;20031;-76
2023/03/12 01:13:42;;;;;;;13.90;4.43;;;2.30;60.50;;;;;;5054369;28;20021;-73
2023/03/12 01:16:08;;;;;;;7.70;4.13;;;2.20;60.70;;;;;;5036459;28;20098;-73
2023/03/12 01:18:33;;;;;;;13.25;4.88;;;2.30;60.70;;;;;;5054390;28;20108;-72
2023/03/12 01:20:59;;;;;;;11.13;5.00;;;2.30;61.10;;;;;;5055776;28;20424;-72
2023/03/12 01:23:25;;;;;;;14.57;4.93;;;2.30;61.10;;;;;;5055751;28;20048;-72
2023/03/12 01:25:54;;;;;;;9.52;4.10;;;2.30;61.00;;;;;;5054678;28;20488;-73
2023/03/12 01:28:23;;;;;;;8.27;4.28;;;2.30;61.20;;;;;;5036294;28;20029;-72
2023/03/12 01:30:48;;;;;;;10.00;4.13;;;2.30;61.00;;;;;;5053683;28;20036;-72
2023/03/12 01:33:15;;;;;;;8.70;4.65;;;2.40;60.70;;;;;;5053902;28;20025;-74
2023/03/12 01:35:41;;;;;;;12.35;4.93;;;2.30;60.40;;;;;;5053858;28;20021;-74
2023/03/12 01:38:11;;;;;;;10.05;4.88;;;2.30;60.40;;;;;;5054100;28;20021;-75
2023/03/12 01:40:37;;;;;;;12.07;5.13;;;2.40;60.70;;;;;;5036016;28;20430;-73
2023/03/12 01:43:24;;;;;;;12.80;4.75;;;2.40;60.90;;;;;;5053571;28;20045;-72
2023/03/12 01:46:05;;;;;;;8.95;4.43;;;2.40;61.00;;;;;;5054486;28;20051;-73
2023/03/12 01:48:40;;;;;;;9.15;4.22;;;2.40;60.90;;;;;;5054067;28;20029;-76
2023/03/12 01:51:09;;;;;;;8.57;4.55;;;2.50;60.70;;;;;;5053595;28;20025;-77
2023/03/12 01:53:35;;;;;;;9.90;4.03;;;2.50;60.80;;;;;;5035814;28;20050;-78
2023/03/12 01:56:01;;;;;;;10.63;4.65;;;2.50;60.60;;;;;;5053538;28;20021;-76
2023/03/12 01:58:30;;;;;;;7.65;3.92;;;2.60;60.60;;;;;;5053774;28;20031;-74
2023/03/12 02:00:56;;;;;;;9.50;3.95;;;2.60;60.60;;;;;;5053343;28;20497;-73
2023/03/12 02:03:22;;;;;;;11.55;4.38;;;2.60;60.80;;;;;;5035310;28;20051;-73
2023/03/12 02:05:54;;;;;;;9.75;4.13;;;2.70;60.60;;;;;;5053129;28;20049;-75
2023/03/12 02:08:20;;;;;;;9.32;4.00;;;2.70;60.50;;;;;;5052817;28;20033;-74
2023/03/12 02:10:46;;;;;;;8.77;4.28;;;2.70;60.50;;;;;;5053149;28;20162;-78
2023/03/12 02:13:12;;;;;;;10.68;3.78;;;2.70;60.70;;;;;;5053225;28;20481;-72
2023/03/12 02:15:38;;;;;;;7.72;3.42;;;2.70;61.20;;;;;;5053430;28;20092;-73
2023/03/12 02:18:10;;;;;;;10.13;3.90;;;2.70;61.00;;;;;;5053781;28;20048;-83
2023/03/12 02:20:55;;;;;;;8.27;3.90;;;2.70;61.30;;;;;;5053787;28;20059;-83
2023/03/12 02:23:42;;;;;;;7.78;4.03;;;2.80;61.30;;;;;;5053896;28;20037;-82
2023/03/12 02:26:09;;;;;;;8.95;3.78;;;2.80;61.40;;;;;;5053805;28;20029;-80
2023/03/12 02:28:41;;;;;;;7.15;3.60;;;2.80;61.50;;;;;;5053977;28;20048;-80
2023/03/12 02:31:07;;;;;;;8.63;3.72;;;2.80;61.40;;;;;;5053886;28;20048;-75
2023/03/12 02:33:33;;;;;;;6.75;3.47;;;2.90;61.30;;;;;;5054213;28;20035;-81
2023/03/12 02:35:59;;;;;;;9.57;3.60;;;2.90;61.10;;;;;;5053384;28;20028;-81
2023/03/12 02:38:36;;;;;;;8.77;3.85;;;2.90;61.20;;;;;;5035960;28;20132;-82
2023/03/12 02:41:18;;;;;;;7.75;3.85;;;2.90;61.10;;;;;;5053494;28;20029;-78
2023/03/12 02:43:47;;;;;;;9.63;4.25;;;3.00;60.80;;;;;;5053451;28;20056;-81
2023/03/12 02:46:14;;;;;;;8.23;3.55;;;3.00;60.70;;;;;;5053306;28;20021;-78
2023/03/12 02:48:39;;;;;;;8.05;3.72;;;3.00;60.60;;;;;;5053112;28;20025;-83
2023/03/12 02:51:05;;;;;;;9.45;3.58;;;3.10;60.40;;;;;;5053413;28;20104;-80
2023/03/12 02:53:31;;;;;;;6.85;3.83;;;3.10;60.40;;;;;;5053161;28;20470;-85
2023/03/12 02:55:56;;;;;;;6.53;3.30;;;3.10;60.30;;;;;;5053565;28;20029;-77
2023/03/12 02:58:22;;;;;;;7.93;3.22;;;3.10;60.40;;;;;;5053371;28;20021;-84
2023/03/12 03:00:48;;;;;;;10.80;3.92;;;3.10;60.30;;;;;;5035481;28;20025;-82
2023/03/12 03:03:13;;;;;;;6.93;3.58;;;3.20;60.30;;;;;;5052971;28;20069;-81
2023/03/12 03:05:39;;;;;;;7.20;3.10;;;3.20;60.20;;;;;;5053383;28;20052;-88
2023/03/12 03:08:05;;;;;;;6.85;3.78;;;3.20;60.40;;;;;;5035885;28;20032;-85
2023/03/12 03:10:31;;;;;;;6.05;3.83;;;3.20;60.50;;;;;;5053044;28;20025;-82
2023/03/12 03:12:56;;;;;;;5.38;3.47;;;3.20;60.50;;;;;;5053287;28;20025;-79
2023/03/12 03:15:22;;;;;;;10.50;4.57;;;3.20;60.70;;;;;;5054496;28;20056;-81
2023/03/12 03:17:48;;;;;;;8.38;4.10;;;3.20;60.70;;;;;;5053836;28;20029;-80
2023/03/12 03:20:13;;;;;;;8.55;3.70;;;3.10;60.80;;;;;;5054617;28;20033;-74
2023/03/12 03:22:39;;;;;;;7.53;3.72;;;3.00;61.30;;;;;;5038445;28;20041;-73
2023/03/12 03:25:07;;;;;;;7.93;3.28;;;2.90;61.90;;;;;;5059106;28;20021;-76
2023/03/12 03:27:33;;;;;;;8.07;3.38;;;2.90;62.20;;;;;;5058082;28;20021;-73
2023/03/12 03:29:58;;;;;;;9.70;3.50;;;3.00;62.40;;;;;;5056151;28;20432;-73
2023/03/12 03:32:24;;;;;;;10.80;3.47;;;3.00;62.20;;;;;;5038674;28;20032;-73
2023/03/12 03:34:49;;;;;;;6.03;3.08;;;3.10;62.50;;;;;;5055908;28;20100;-73
2023/03/12 03:37:15;;;;;;;8.20;3.47;;;3.10;63.00;;;;;;5056055;28;20037;-77
2023/03/12 03:39:41;;;;;;;5.82;3.45;;;3.10;63.30;;;;;;5055780;28;20086;-77
2023/03/12 03:42:06;;;;;;;5.40;3.28;;;3.10;63.50;;;;;;5055869;28;20133;-76
2023/03/12 03:44:32;;;;;;;9.00;3.90;;;3.10;63.40;;;;;;5055742;28;20021;-74
2023/03/12 03:46:57;;;;;;;8.80;3.90;;;3.10;63.50;;;;;;5038015;28;20021;-74
2023/03/12 03:49:23;;;;;;;7.78;3.95;;;3.10;63.80;;;;;;5055936;28;20096;-73
2023/03/12 03:51:50;;;;;;;8.40;3.92;;;3.00;63.80;;;;;;5055619;28;20055;-74
2023/03/12 03:54:17;;;;;;;5.88;3.22;;;3.10;63.80;;;;;;5055883;28;20029;-73
2023/03/12 03:56:43;;;;;;;5.80;3.40;;;3.10;63.90;;;;;;5056401;28;20389;-87
2023/03/12 03:59:08;;;;;;;8.07;3.58;;;3.10;64.10;;;;;;5056489;28;20101;-84
2023/03/12 04:01:35;;;;;;;8.57;4.18;;;3.20;64.10;;;;;;5056582;28;20033;-86
2023/03/12 04:04:02;;;;;;;8.15;3.97;;;3.30;64.30;;;;;;5057025;28;20074;-89
2023/03/12 04:06:28;;;;;;;6.63;3.95;;;3.30;64.10;;;;;;5057276;28;20049;-89
2023/03/12 04:08:55;;;;;;;10.02;3.40;;;3.40;64.50;;;;;;5056335;28;20075;-89
2023/03/12 04:11:21;;;;;;;6.18;2.63;;;3.40;65.30;;;;;;5055984;28;20022;-75
2023/03/12 04:13:47;;;;;;;5.43;2.88;;;3.50;65.50;;;;;;5055711;28;20032;-77
2023/03/12 04:16:13;;;;;;;4.22;2.65;;;3.50;65.60;;;;;;5055555;28;20025;-74
2023/03/12 04:18:39;;;;;;;5.97;2.65;;;3.60;65.70;;;;;;5055444;28;20377;-74
2023/03/12 04:21:07;;;;;;;4.78;2.60;;;3.60;65.50;;;;;;5055250;28;20028;-73
2023/03/12 04:23:33;;;;;;;5.38;2.40;;;3.70;65.60;;;;;;5054870;28;20032;-73
2023/03/12 04:25:58;;;;;;;4.75;2.45;;;3.70;65.40;;;;;;5037296;28;20025;-73
2023/03/12 04:28:24;;;;;;;6.22;2.78;;;3.70;65.40;;;;;;5055146;28;20100;-75
2023/03/12 04:30:58;;;;;;;3.72;2.40;;;3.70;65.30;;;;;;5054892;28;20473;-76
2023/03/12 04:33:25;;;;;;;6.05;2.35;;;3.80;65.50;;;;;;5054813;28;20024;-73
2023/03/12 04:35:52;;;;;;;4.30;2.30;;;3.80;65.00;;;;;;5055211;28;20485;-73
2023/03/12 04:38:22;;;;;;;6.18;2.67;;;3.70;65.00;;;;;;5054668;28;20021;-74
2023/03/12 04:41:06;;;;;;;8.45;2.60;;;3.70;64.90;;;;;;5054720;28;20383;-73
2023/03/12 04:43:33;;;;;;;6.45;3.00;;;3.70;64.90;;;;;;5054592;28;20416;-72
2023/03/12 04:45:59;;;;;;;5.85;2.65;;;3.60;65.30;;;;;;5054963;28;20040;-72
2023/03/12 04:48:25;;;;;;;6.40;2.90;;;3.60;66.00;;;;;;5054846;28;20024;-73
2023/03/12 04:50:51;;;;;;;5.50;3.28;;;3.50;66.30;;;;;;5054650;28;20032;-74
2023/03/12 04:53:17;;;;;;;3.60;2.42;;;3.50;66.70;;;;;;5054636;28;20021;-72
2023/03/12 04:55:42;;;;;;;5.50;2.90;;;3.60;67.00;;;;;;5054805;28;20029;-75
2023/03/12 04:58:08;;;;;;;6.63;3.55;;;3.60;67.20;;;;;;5054756;28;20028;-72
2023/03/12 05:00:34;;;;;;;5.20;3.30;;;3.60;67.60;;;;;;5045014;28;20045;-72
2023/03/12 05:03:00;;;;;;;6.07;3.70;;;3.60;68.30;;;;;;5055185;28;20037;-74
2023/03/12 05:05:26;;;;;;;7.63;3.90;;;3.60;68.70;;;;;;5054845;28;20045;-73
2023/03/12 05:07:51;;;;;;;5.57;4.00;;;3.70;68.60;;;;;;5055412;28;20036;-72
2023/03/12 05:10:17;;;;;;;7.38;4.65;;;3.60;68.50;;;;;;5054050;28;20025;-73
2023/03/12 05:12:43;;;;;;;6.22;4.50;;;3.70;68.60;;;;;;5054162;28;20021;-72
2023/03/12 05:15:09;;;;;;;8.85;5.57;;;3.70;68.70;;;;;;5054146;28;20423;-72
2023/03/12 05:17:34;;;;;;;8.63;5.88;;;3.70;68.90;;;;;;5054021;28;20422;-73
2023/03/12 05:20:00;;;;;;;11.85;7.63;;;3.70;69.40;;;;;;5053906;28;20029;-76
2023/03/12 05:22:25;;;;;;;10.35;7.28;;;3.70;69.40;;;;;;5053907;28;20405;-72
2023/03/12 05:24:51;;;;;;;13.18;8.57;;;3.70;69.80;;;;;;5053975;28;20498;-73
2023/03/12 05:27:16;;;;;;;13.10;8.05;;;3.70;70.10;;;;;;5053946;28;20032;-72
2023/03/12 05:29:42;;;;;;;10.65;8.07;;;3.70;70.50;;;;;;5054356;28;20036;-73
2023/03/12 05:32:07;;;;;;;13.75;9.73;;;3.70;70.60;;;;;;5054158;28;20023;-73
2023/03/12 05:34:33;;;;;;;15.20;9.43;;;3.80;70.90;;;;;;5035847;28;20031;-72
2023/03/12 05:36:59;;;;;;;15.50;9.45;;;3.80;71.20;;;;;;5053835;28;20104;-72
2023/03/12 05:39:25;;;;;;;13.95;10.30;;;3.80;71.70;;;;;;5035568;28;20377;-73
2023/03/12 05:41:55;;;;;;;14.82;10.90;;;3.80;72.70;;;;;;5052900;28;20086;-73
2023/03/12 05:44:22;;;;;;;22.30;13.10;;;3.80;73.40;;;;;;5052854;28;20074;-72
2023/03/12 05:46:47;;;;;;;19.55;12.85;;;3.80;74.10;;;;;;5053334;28;20059;-72
2023/03/12 05:49:13;;;;;;;19.77;13.88;;;3.80;75.20;;;;;;5053402;28;20060;-73
2023/03/12 05:51:38;;;;;;;21.90;14.63;;;3.80;75.40;;;;;;5053258;28;20029;-73
2023/03/12 05:54:04;;;;;;;18.17;12.27;;;3.90;76.00;;;;;;5053147;28;20025;-73
2023/03/12 05:56:30;;;;;;;20.85;13.60;;;3.80;77.40;;;;;;5053119;28;20032;-73
2023/03/12 05:58:55;;;;;;;18.90;12.35;;;3.90;78.10;;;;;;5052960;28;20041;-73
2023/03/12 06:01:24;;;;;;;15.10;11.02;;;3.90;79.50;;;;;;5052920;28;20021;-73
2023/03/12 06:03:50;;;;;;;18.17;12.50;;;3.90;79.70;;;;;;5053290;28;20037;-73
2023/03/12 06:06:16;;;;;;;17.80;12.63;;;4.00;79.80;;;;;;5034887;28;20060;-74
2023/03/12 06:08:42;;;;;;;18.58;11.60;;;4.10;80.00;;;;;;5035123;28;20423;-73
2023/03/12 06:11:08;;;;;;;17.73;11.80;;;4.10;80.20;;;;;;5052831;28;20057;-74
2023/03/12 06:13:34;;;;;;;20.42;12.27;;;4.10;80.00;;;;;;5052875;28;20111;-74
2023/03/12 06:16:04;;;;;;;19.48;12.55;;;4.10;80.50;;;;;;5035001;28;20020;-77
2023/03/12 06:18:34;;;;;;;15.77;11.32;;;4.20;80.90;;;;;;5052819;28;20032;-79
2023/03/12 06:21:16;;;;;;;16.35;12.15;;;4.10;81.20;;;;;;5053285;28;20032;-80
2023/03/12 06:23:42;;;;;;;16.08;11.38;;;4.20;81.30;;;;;;5053011;28;20482;-76
2023/03/12 06:26:09;;;;;;;17.67;12.00;;;4.20;81.40;;;;;;5053493;28;20092;-86
2023/03/12 06:28:34;;;;;;;17.92;11.45;;;4.20;81.30;;;;;;5035961;28;20386;-88
2023/03/12 06:31:00;;;;;;;15.98;11.55;;;4.30;81.30;;;;;;5053951;28;20028;-86
2023/03/12 06:33:26;;;;;;;15.82;10.52;;;4.30;81.30;;;;;;5053813;28;20031;-82
2023/03/12 06:35:57;;;;;;;12.45;9.00;;;4.40;81.50;;;;;;5035885;28;20017;-85
2023/03/12 06:38:23;;;;;;;13.60;10.32;;;4.50;82.20;;;;;;5035735;28;20029;-83
2023/03/12 06:41:13;;;;;;;14.00;10.98;;;4.60;82.20;;;;;;5054930;28;20100;-84
2023/03/12 06:43:40;;;;;;;16.13;10.80;;;4.60;82.10;;;;;;5027850;28;20041;-88
2023/03/12 06:46:08;;;;;;;15.70;11.45;;;4.60;81.80;;;;;;5054331;28;20441;-85
2023/03/12 06:48:35;;;;;;;17.08;11.73;;;4.60;81.50;;;;;;5053384;28;20469;-82
2023/03/12 06:51:04;;;;;;;13.75;9.98;;;4.70;81.60;;;;;;5052952;28;20028;-84
2023/03/12 06:53:31;;;;;;;14.30;10.05;;;4.80;82.00;;;;;;5053587;28;20121;-81
2023/03/12 06:55:57;;;;;;;14.13;9.75;;;4.80;82.40;;;;;;5057102;28;20021;-84
2023/03/12 06:58:23;;;;;;;13.70;9.65;;;4.80;82.20;;;;;;5057104;28;20382;-84
2023/03/12 07:00:49;;;;;;;12.63;9.35;;;4.80;82.20;;;;;;5057221;28;20028;-77
2023/03/12 07:03:15;;;;;;;12.68;8.57;;;4.90;82.20;;;;;;5057056;28;20036;-85
2023/03/12 07:05:45;;;;;;;11.45;8.15;;;4.90;82.20;;;;;;5056812;28;20045;-85
2023/03/12 07:08:11;;;;;;;11.27;8.00;;;5.00;82.20;;;;;;5056646;28;20049;-83
2023/03/12 07:10:36;;;;;;;7.15;5.15;;;5.00;82.20;;;;;;5056402;28;20489;-84
2023/03/12 07:13:02;;;;;;;8.48;5.93;;;5.10;82.40;;;;;;5056674;28;20033;-80
2023/03/12 07:15:27;;;;;;;7.93;5.93;;;5.30;82.40;;;;;;5056437;28;20029;-77
2023/03/12 07:17:53;;;;;;;8.27;5.95;;;5.40;82.10;;;;;;5056360;28;20543;-76
2023/03/12 07:20:19;;;;;;;6.90;5.00;;;5.60;81.70;;;;;;5056383;28;20029;-80
2023/03/12 07:22:44;;;;;;;9.23;5.20;;;5.60;82.00;;;;;;5038665;28;20083;-81
2023/03/12 07:25:10;;;;;;;1.95;1.40;;;5.90;83.80;;;;;;5056504;28;20064;-81
2023/03/12 07:27:36;;;;;;;1.40;1.08;;;6.10;83.40;;;;;;5056425;28;20563;-84
2023/03/12 07:30:02;;;;;;;2.00;1.15;;;6.20;82.70;;;;;;5056528;28;20102;-73
2023/03/12 07:32:28;;;;;;;1.52;0.93;;;6.40;82.30;;;;;;5056094;28;20053;-75
2023/03/12 07:34:53;;;;;;;2.17;1.45;;;6.50;81.50;;;;;;5056188;28;20036;-86
2023/03/12 07:37:19;;;;;;;1.60;1.10;;;6.60;81.30;;;;;;5056477;28;20448;-80
2023/03/12 07:39:49;;;;;;;1.58;0.85;;;6.60;81.10;;;;;;5055737;28;20407;-74
2023/03/12 07:42:15;;;;;;;2.33;1.08;;;6.80;80.80;;;;;;5055769;28;20116;-81
2023/03/12 07:44:41;;;;;;;1.00;0.77;;;6.90;80.10;;;;;;5055805;28;20049;-80
2023/03/12 07:47:06;;;;;;;2.65;1.55;;;7.20;79.50;;;;;;5055126;28;20052;-77
2023/03/12 07:49:32;;;;;;;0.63;0.55;;;7.30;79.00;;;;;;5055375;28;20025;-77
2023/03/12 07:51:58;;;;;;;1.50;0.85;;;7.30;79.00;;;;;;5055615;28;20486;-75
2023/03/12 07:54:29;;;;;;;2.35;0.93;;;7.30;79.50;;;;;;5055702;28;20470;-73
2023/03/12 07:56:57;;;;;;;2.70;0.70;;;7.30;80.40;;;;;;5055800;28;20588;-74
2023/03/12 07:59:24;;;;;;;1.17;0.88;;;7.30;81.00;;;;;;5055861;28;20044;-74
2023/03/12 08:01:50;;;;;;;2.80;0.88;;;7.20;80.70;;;;;;5055455;28;20033;-76
2023/03/12 08:04:15;;;;;;;2.75;0.80;;;7.30;80.70;;;;;;5055579;28;20031;-79
2023/03/12 08:06:41;;;;;;;2.35;1.15;;;7.30;80.40;;;;;;5055000;28;20477;-78
2023/03/12 08:09:08;;;;;;;3.85;1.20;;;7.30;80.90;;;;;;5055474;28;20025;-80
2023/03/12 08:11:35;;;;;;;3.72;1.42;;;7.40;79.70;;;;;;5055407;28;20021;-78
2023/03/12 08:14:00;;;;;;;2.58;1.30;;;7.50;79.70;;;;;;5037267;28;20056;-73
2023/03/12 08:16:26;;;;;;;3.83;0.80;;;7.50;79.10;;;;;;5055187;28;20024;-74
2023/03/12 08:18:51;;;;;;;2.65;0.73;;;7.60;78.60;;;;;;5055231;28;20071;-73
2023/03/12 08:21:17;;;;;;;1.65;0.60;;;7.70;78.70;;;;;;5055086;28;20025;-73
2023/03/12 08:23:42;;;;;;;3.20;1.17;;;7.80;78.40;;;;;;5056475;28;20120;-76
2023/03/12 08:26:08;;;;;;;2.25;1.15;;;7.80;78.30;;;;;;5057142;28;20021;-80
2023/03/12 08:28:34;;;;;;;2.38;0.93;;;7.90;77.30;;;;;;5058754;28;20029;-73
2023/03/12 08:31:00;;;;;;;4.00;0.73;;;8.00;77.10;;;;;;5055997;28;20032;-73
2023/03/12 08:33:25;;;;;;;12.68;2.03;;;8.20;76.60;;;;;;5037458;28;20390;-73
2023/03/12 08:35:51;;;;;;;9.80;1.60;;;8.40;79.00;;;;;;5054892;28;20021;-74
2023/03/12 08:38:17;;;;;;;2.63;0.65;;;8.80;78.60;;;;;;5055083;28;20025;-74
2023/03/12 08:40:43;;;;;;;2.35;0.63;;;9.20;72.80;;;;;;5041770;28;20017;-74
2023/03/12 08:43:09;;;;;;;1.42;0.57;;;9.20;71.20;;;;;;5059359;28;20544;-78
2023/03/12 08:45:35;;;;;;;3.75;0.60;;;9.20;71.70;;;;;;5054969;28;20021;-74
2023/03/12 08:48:02;;;;;;;2.78;0.77;;;9.10;71.90;;;;;;5054938;28;20087;-73
2023/03/12 08:50:30;;;;;;;3.15;0.90;;;9.10;72.70;;;;;;5054734;28;20017;-74
2023/03/12 08:52:59;;;;;;;4.80;0.82;;;9.20;72.30;;;;;;5054538;28;20021;-74
2023/03/12 08:55:26;;;;;;;3.10;0.52;;;9.30;71.70;;;;;;5054711;28;20577;-74
2023/03/12 08:57:53;;;;;;;3.40;0.93;;;9.10;72.10;;;;;;5054452;28;20366;-74
2023/03/12 09:00:19;;;;;;;4.47;1.10;;;9.10;71.60;;;;;;5054454;28;20509;-74
2023/03/12 09:02:45;;;;;;;2.03;0.80;;;9.00;72.50;;;;;;5054398;28;20115;-74
2023/03/12 09:05:11;;;;;;;1.77;0.80;;;9.00;72.20;;;;;;5054626;28;20040;-75
2023/03/12 09:07:37;;;;;;;5.03;0.85;;;9.10;71.60;;;;;;5055893;28;20032;-74
2023/03/12 09:10:04;;;;;;;4.13;1.95;;;9.10;72.10;;;;;;5036281;28;20021;-75
2023/03/12 09:12:30;;;;;;;3.80;1.83;;;9.20;71.70;;;;;;5054172;28;20063;-75
2023/03/12 09:14:55;;;;;;;4.38;0.93;;;9.30;71.60;;;;;;5054161;28;20061;-74
2023/03/12 09:17:21;;;;;;;3.55;0.85;;;9.30;71.20;;;;;;5053058;28;20029;-74
2023/03/12 09:19:47;;;;;;;4.47;1.52;;;9.40;71.10;;;;;;5054010;28;20366;-73
2023/03/12 09:22:12;;;;;;;5.75;0.98;;;9.40;70.80;;;;;;5053869;28;20033;-75
2023/03/12 09:24:38;;;;;;;3.38;1.10;;;9.30;70.80;;;;;;5053529;28;20481;-73
2023/03/12 09:27:03;;;;;;;4.15;1.30;;;9.30;71.10;;;;;;5053714;28;20025;-74
2023/03/12 09:29:32;;;;;;;5.57;1.92;;;9.30;70.80;;;;;;5053531;28;20025;-77
2023/03/12 09:31:58;;;;;;;9.18;1.70;;;9.20;71.00;;;;;;5053272;28;20029;-74
2023/03/12 09:34:23;;;;;;;5.95;1.45;;;9.20;70.60;;;;;;5053540;28;20021;-76
2023/03/12 09:36:49;;;;;;;5.20;1.60;;;9.10;71.20;;;;;;5053660;28;20496;-73
2023/03/12 09:39:22;;;;;;;;;;;9.10;71.60;;;;;;5070628;28;20445;-73
2023/03/12 09:41:48;;;;;;;3.28;1.17;;;9.10;71.80;;;;;;5070374;28;19916;-73
2023/03/12 09:44:33;;;;;;;5.60;1.70;;;9.10;71.40;;;;;;5070278;28;20099;-72
2023/03/12 09:47:04;;;;;;;3.15;1.20;;;9.10;71.80;;;;;;5068759;28;20031;-72
2023/03/12 09:49:48;;;;;;;5.07;1.60;;;9.00;72.20;;;;;;5066298;28;20021;-73
2023/03/12 09:52:47;;;;;;;6.22;1.45;;;8.90;72.70;;;;;;5066147;28;20032;-73
2023/03/12 09:55:19;;;;;;;4.75;1.38;;;8.90;73.90;;;;;;5068791;28;20037;-73
2023/03/12 09:57:47;;;;;;;4.72;1.17;;;8.80;74.00;;;;;;5069843;28;20033;-74
2023/03/12 10:00:15;;;;;;;8.10;1.65;;;8.90;74.40;;;;;;5070393;28;20108;-73
2023/03/12 10:03:06;;;;;;;3.30;1.40;;;8.90;74.50;;;;;;5070007;28;20029;-73
2023/03/12 10:05:44;;;;;;;6.80;1.85;;;9.10;74.00;;;;;;5070172;28;20024;-74
2023/03/12 10:08:22;;;;;;;9.40;2.05;;;9.10;73.30;;;;;;5070481;28;20025;-81
2023/03/12 10:11:06;;;;;;;7.43;1.70;;;9.20;72.40;;;;;;5070405;28;20123;-79
2023/03/12 10:13:45;;;;;;;8.25;1.52;;;9.30;70.60;;;;;;5069970;28;20420;-75
2023/03/12 10:16:19;;;;;;;7.88;1.98;;;9.40;71.10;;;;;;5069150;28;20040;-73
2023/03/12 10:19:14;;;;;;;7.18;1.98;;;9.50;70.80;;;;;;5070495;28;20043;-78
2023/03/12 10:21:46;;;;;;;8.40;2.57;;;9.80;68.80;;;;;;5070227;28;20028;-74
2023/03/12 10:24:30;;;;;;;12.93;3.38;;;9.90;68.40;;;;;;5073651;28;20082;-73
2023/03/12 10:26:57;;;;;;;11.23;2.10;;;10.10;66.80;;;;;;5072113;28;20028;-74
2023/03/12 10:29:27;;;;;;;6.53;2.30;;;10.20;66.00;;;;;;5069923;28;20385;-76
2023/03/12 10:32:18;;;;;;;11.23;2.55;;;10.20;66.10;;;;;;5068362;28;20040;-76
2023/03/12 10:34:49;;;;;;;8.48;2.22;;;10.10;66.50;;;;;;5069050;28;20060;-83
2023/03/12 10:37:30;;;;;;;9.60;2.13;;;10.00;65.70;;;;;;5069020;28;20095;-83
2023/03/12 10:39:56;;;;;;;10.55;2.60;;;9.90;67.00;;;;;;5069061;28;20136;-82
2023/03/12 10:42:24;;;;;;;9.60;2.30;;;9.80;67.40;;;;;;5067746;28;20056;-80
2023/03/12 10:44:58;;;;;;;7.35;1.70;;;9.70;68.20;;;;;;5069027;28;20116;-80
2023/03/12 10:47:38;;;;;;;7.95;2.55;;;9.70;68.10;;;;;;5067516;28;20044;-82
2023/03/12 10:50:19;;;;;;;11.75;2.58;;;9.60;68.30;;;;;;5059557;28;20036;-82
2023/03/12 10:52:47;;;;;;;9.73;2.15;;;9.60;68.20;;;;;;5055501;28;20025;-75
2023/03/12 10:55:19;;;;;;;10.52;2.42;;;9.60;68.70;;;;;;5055442;28;20107;-72
2023/03/12 10:57:46;;;;;;;12.40;2.17;;;9.60;69.20;;;;;;5055569;28;20087;-74
2023/03/12 11:00:24;;;;;;;7.20;1.52;;;9.70;68.70;;;;;;5054362;28;20047;-74
2023/03/12 11:03:02;;;;;;;5.28;1.52;;;9.90;68.80;;;;;;5055583;28;20104;-75
2023/03/12 11:05:35;;;;;;;6.95;1.83;;;10.10;67.50;;;;;;5054296;28;20067;-75
2023/03/12 11:08:02;;;;;;;9.30;1.88;;;10.20;67.10;;;;;;5055358;28;20108;-73
2023/03/12 11:10:43;;;;;;;7.00;1.60;;;10.30;66.70;;;;;;5053854;28;20025;-73
2023/03/12 11:13:28;;;;;;;5.68;1.80;;;10.50;66.40;;;;;;5055104;28;20029;-76
2023/03/12 11:15:56;;;;;;;7.28;1.50;;;10.70;64.70;;;;;;5055323;28;20520;-76
2023/03/12 11:18:34;;;;;;;8.23;1.88;;;11.00;64.40;;;;;;5053788;28;20433;-76
2023/03/12 11:21:09;;;;;;;5.93;1.80;;;11.40;61.80;;;;;;5054011;28;20056;-76
2023/03/12 11:23:41;;;;;;;8.40;2.33;;;11.40;60.10;;;;;;5055166;28;20036;-74
2023/03/12 11:26:21;;;;;;;11.32;2.50;;;11.40;59.90;;;;;;5053864;28;20022;-77
2023/03/12 11:29:01;;;;;;;9.25;3.17;;;11.90;58.80;;;;;;5055128;28;20370;-73
2023/03/12 11:31:35;;;;;;;5.85;1.35;;;12.00;57.70;;;;;;5054857;28;20021;-73
2023/03/12 11:34:07;;;;;;;9.50;2.92;;;11.70;56.40;;;;;;5054882;28;20035;-76
2023/03/12 11:36:52;;;;;;;7.00;1.83;;;11.90;56.30;;;;;;5054583;28;20079;-77
2023/03/12 11:39:42;;;;;;;5.78;1.48;;;12.10;55.10;;;;;;5054574;28;20049;-76
2023/03/12 11:42:31;;;;;;;5.72;1.92;;;11.90;55.10;;;;;;5054709;28;20025;-72
2023/03/12 11:45:26;;;;;;;8.75;2.20;;;11.80;55.10;;;;;;5054739;28;20111;-77
2023/03/12 11:48:07;;;;;;;8.10;2.05;;;11.80;55.00;;;;;;5054906;28;20025;-73
2023/03/12 11:50:35;;;;;;;5.55;2.08;;;11.60;55.90;;;;;;5054689;28;20108;-76
2023/03/12 11:53:31;;;;;;;8.30;1.58;;;11.70;56.00;;;;;;5054696;28;20087;-73
2023/03/12 11:56:23;;;;;;;6.35;2.28;;;11.90;55.70;;;;;;5053354;28;20462;-78
2023/03/12 11:58:52;;;;;;;9.93;2.38;;;12.00;53.90;;;;;;5054295;28;20508;-78
2023/03/12 12:01:48;;;;;;;5.65;1.35;;;12.30;54.10;;;;;;5053315;28;20027;-80
2023/03/12 12:04:19;;;;;;;7.75;2.25;;;12.80;51.90;;;;;;5053325;28;20082;-77
2023/03/12 12:07:00;;;;;;;5.22;1.90;;;13.10;51.90;;;;;;5055668;28;20088;-78
2023/03/12 12:10:00;;;;;;;4.80;1.40;;;13.20;51.10;;;;;;5054413;28;20025;-73
2023/03/12 12:12:50;;;;;;;4.32;1.30;;;13.50;51.40;;;;;;5037666;28;20033;-74
2023/03/12 12:15:38;;;;;;;9.98;2.20;;;13.60;49.00;;;;;;5053232;28;20166;-74
2023/03/12 12:18:22;;;;;;;7.43;1.42;;;13.50;50.70;;;;;;5052972;28;20033;-74
2023/03/12 12:21:09;;;;;;;6.35;1.90;;;13.70;50.10;;;;;;5052740;28;20032;-74
2023/03/12 12:23:53;;;;;;;5.55;1.67;;;13.70;49.50;;;;;;5052832;28;20025;-74
2023/03/12 12:26:35;;;;;;;3.60;1.08;;;13.70;50.30;;;;;;5052591;28;20032;-73
2023/03/12 12:29:01;;;;;;;7.32;1.92;;;13.30;48.60;;;;;;5052714;28;20036;-74
2023/03/12 12:31:45;;;;;;;7.53;1.60;;;13.00;49.90;;;;;;5052527;28;20021;-73
2023/03/12 12:34:33;;;;;;;5.78;1.92;;;12.50;51.60;;;;;;5052697;28;20565;-74
2023/03/12 12:37:30;;;;;;;5.05;1.40;;;12.10;53.90;;;;;;5052424;28;20116;-73
2023/03/12 12:40:33;;;;;;;4.40;1.52;;;11.60;55.20;;;;;;5053543;28;20032;-74
2023/03/12 12:43:22;;;;;;;3.70;1.02;;;11.50;55.80;;;;;;5051373;28;20017;-73
2023/03/12 12:45:52;;;;;;;7.45;1.98;;;11.30;56.90;;;;;;5032191;28;20018;-74
2023/03/12 12:48:20;;;;;;;5.88;1.60;;;11.20;57.60;;;;;;5033582;28;20071;-75
2023/03/12 12:50:48;;;;;;;9.20;2.78;;;11.20;58.10;;;;;;5035104;28;20765;-78
2023/03/12 12:53:24;;;;;;;8.40;2.40;;;11.30;57.60;;;;;;5051857;28;20064;-74
2023/03/12 12:56:29;;;;;;;4.82;1.65;;;11.30;57.70;;;;;;5049869;28;20067;-76
2023/03/12 12:59:07;;;;;;;3.70;1.27;;;11.40;57.40;;;;;;5029980;28;20525;-74
2023/03/12 13:01:35;;;;;;;7.03;2.28;;;11.60;57.10;;;;;;5048260;28;20079;-73
2023/03/12 13:04:05;;;;;;;4.15;1.67;;;11.60;57.10;;;;;;5053104;28;20547;-75
2023/03/12 13:07:13;;;;;;;7.78;1.88;;;11.60;56.20;;;;;;5053118;28;20025;-74